Time;durP1;ratioP1;P1;durP2;ratioP2;P2;SDS_P1;SDS_P2;PMS_P1;PMS_P2;Temp;Humidity;BMP_temperature;BMP_pressure;BME280_temperature;BME280_humidity;BME280_pressure;Samples;Min_cycle;Max_cycle;Signal;HPM_P1;HPM_P2
2021/06/23 00:01:44;;;;;;;2.63;1.67;;;12.40;85.90;;;;;;5056384;28;20485;-73
2021/06/23 00:04:10;;;;;;;2.20;1.85;;;12.40;86.10;;;;;;5056528;28;20056;-73
2021/06/23 00:06:35;;;;;;;2.88;2.50;;;12.40;86.10;;;;;;5056608;28;20385;-74
2021/06/23 00:09:01;;;;;;;2.30;1.75;;;12.30;86.20;;;;;;5073843;28;20441;-73
2021/06/23 00:11:39;;;;;;;2.55;1.85;;;12.30;86.30;;;;;;5056361;28;20017;-73
2021/06/23 00:14:04;;;;;;;2.53;1.75;;;12.30;86.20;;;;;;5074164;28;20017;-73
2021/06/23 00:16:30;;;;;;;2.72;1.80;;;12.30;86.30;;;;;;5074194;28;20393;-73
2021/06/23 00:18:55;;;;;;;1.98;1.60;;;12.40;86.20;;;;;;5074275;28;20028;-73
2021/06/23 00:21:21;;;;;;;2.20;1.60;;;12.40;86.20;;;;;;5074223;28;20021;-73
2021/06/23 00:23:46;;;;;;;2.42;2.05;;;12.40;86.20;;;;;;5073551;28;20044;-73
2021/06/23 00:26:12;;;;;;;1.83;1.55;;;12.40;86.10;;;;;;5073955;28;20477;-73
2021/06/23 00:28:37;;;;;;;1.83;1.60;;;12.50;86.10;;;;;;5072935;28;20028;-72
2021/06/23 00:31:03;;;;;;;1.55;1.30;;;12.50;86.10;;;;;;5073866;28;20021;-73
2021/06/23 00:33:32;;;;;;;1.98;1.77;;;12.50;86.10;;;;;;5073787;28;20477;-72
2021/06/23 00:35:58;;;;;;;1.35;1.25;;;12.50;86.00;;;;;;5073841;28;20020;-72
2021/06/23 00:38:23;;;;;;;1.55;1.40;;;12.50;86.20;;;;;;5073129;28;20041;-72
2021/06/23 00:40:49;;;;;;;2.10;1.58;;;12.50;86.20;;;;;;5073738;28;20020;-73
2021/06/23 00:43:15;;;;;;;1.90;1.58;;;12.40;86.30;;;;;;5055850;28;20062;-73
2021/06/23 00:45:41;;;;;;;1.65;1.48;;;12.40;86.30;;;;;;5073779;28;20469;-73
2021/06/23 00:48:09;;;;;;;2.67;1.52;;;12.40;86.50;;;;;;5073492;28;20099;-73
2021/06/23 00:50:35;;;;;;;1.75;1.30;;;12.40;86.60;;;;;;5073553;28;20021;-73
2021/06/23 00:53:01;;;;;;;3.03;2.45;;;12.40;86.70;;;;;;5073116;28;20411;-74
2021/06/23 00:55:27;;;;;;;4.22;2.80;;;12.30;86.80;;;;;;5073520;28;20025;-74
2021/06/23 00:57:54;;;;;;;2.88;2.20;;;12.30;86.90;;;;;;5073490;28;20064;-73
2021/06/23 01:00:28;;;;;;;2.13;1.73;;;12.30;87.10;;;;;;5055386;28;20111;-74
2021/06/23 01:02:54;;;;;;;2.55;1.70;;;12.30;87.10;;;;;;5073407;28;20341;-73
2021/06/23 01:05:21;;;;;;;2.65;1.80;;;12.40;87.00;;;;;;5073533;28;20097;-73
2021/06/23 01:07:47;;;;;;;3.45;2.17;;;12.40;86.80;;;;;;5054959;28;20106;-73
2021/06/23 01:10:13;;;;;;;2.08;1.77;;;12.40;86.90;;;;;;5055241;28;20020;-73
2021/06/23 01:12:42;;;;;;;2.47;2.00;;;12.40;86.90;;;;;;5073399;28;20020;-74
2021/06/23 01:15:08;;;;;;;2.37;2.03;;;12.50;87.00;;;;;;5055447;28;20047;-74
2021/06/23 01:17:35;;;;;;;2.90;2.10;;;12.50;87.00;;;;;;5073376;28;20477;-74
2021/06/23 01:20:07;;;;;;;2.28;1.70;;;12.50;86.90;;;;;;5073257;28;20476;-74
2021/06/23 01:22:34;;;;;;;2.17;1.58;;;12.50;86.90;;;;;;5072700;28;20423;-74
2021/06/23 01:25:00;;;;;;;1.52;1.35;;;12.50;87.00;;;;;;5073075;28;20099;-73
2021/06/23 01:27:26;;;;;;;1.60;1.38;;;12.50;86.80;;;;;;5073145;28;20056;-73
2021/06/23 01:29:52;;;;;;;1.33;1.20;;;12.60;86.80;;;;;;5073175;28;20028;-73
2021/06/23 01:32:18;;;;;;;2.00;1.58;;;12.60;86.80;;;;;;5055119;28;20025;-73
2021/06/23 01:34:43;;;;;;;1.58;1.48;;;12.70;86.70;;;;;;5073179;28;20078;-73
2021/06/23 01:37:09;;;;;;;1.50;1.38;;;12.70;86.80;;;;;;5054463;28;20050;-73
2021/06/23 01:39:35;;;;;;;2.88;1.42;;;12.70;86.70;;;;;;5072107;28;20082;-73
2021/06/23 01:42:01;;;;;;;1.85;1.42;;;12.70;86.60;;;;;;5055132;28;20012;-74
2021/06/23 01:44:28;;;;;;;2.03;1.60;;;12.70;86.80;;;;;;5072943;28;20531;-73
2021/06/23 01:46:55;;;;;;;3.17;1.48;;;12.70;86.90;;;;;;5072948;28;20108;-73
2021/06/23 01:49:23;;;;;;;1.58;1.48;;;12.70;86.90;;;;;;5072973;28;20021;-73
2021/06/23 01:51:49;;;;;;;1.58;1.17;;;12.70;87.00;;;;;;5072253;28;20112;-73
2021/06/23 01:54:15;;;;;;;2.42;1.60;;;12.70;87.00;;;;;;5072860;28;20103;-73
2021/06/23 01:56:41;;;;;;;1.40;1.30;;;12.80;87.00;;;;;;5072608;28;20032;-74
2021/06/23 01:59:07;;;;;;;1.80;1.45;;;12.80;86.90;;;;;;5072766;28;20050;-73
2021/06/23 02:01:58;;;;;;;1.40;1.30;;;12.80;87.00;;;;;;5072740;28;20020;-74
2021/06/23 02:04:33;;;;;;;1.73;1.33;;;12.90;86.80;;;;;;5072748;28;20024;-73
2021/06/23 02:07:34;;;;;;;1.42;1.33;;;12.90;86.90;;;;;;5072284;28;20028;-73
2021/06/23 02:10:15;;;;;;;1.38;1.20;;;12.90;86.70;;;;;;5072784;28;20059;-73
2021/06/23 02:13:03;;;;;;;2.03;1.67;;;12.90;86.80;;;;;;5072625;28;20027;-73
2021/06/23 02:15:29;;;;;;;1.33;1.23;;;12.80;87.00;;;;;;5072767;28;20031;-73
2021/06/23 02:17:56;;;;;;;1.52;1.42;;;12.80;87.00;;;;;;5054644;28;20033;-72
2021/06/23 02:20:25;;;;;;;1.70;1.60;;;12.90;87.00;;;;;;5072172;28;20021;-73
2021/06/23 02:22:52;;;;;;;1.80;1.67;;;12.90;87.00;;;;;;5072655;28;20036;-73
2021/06/23 02:25:17;;;;;;;2.00;1.40;;;12.90;87.00;;;;;;5072514;28;20017;-73
2021/06/23 02:27:43;;;;;;;1.63;1.42;;;12.90;87.10;;;;;;5072440;28;20027;-73
2021/06/23 02:30:12;;;;;;;1.77;1.27;;;12.80;87.10;;;;;;5072489;28;20036;-73
2021/06/23 02:32:40;;;;;;;2.15;1.85;;;12.80;87.20;;;;;;5072325;28;20024;-73
2021/06/23 02:35:08;;;;;;;2.40;1.88;;;12.80;87.20;;;;;;5054081;28;20069;-73
2021/06/23 02:37:34;;;;;;;2.15;1.60;;;12.80;87.30;;;;;;5072312;28;20025;-73
2021/06/23 02:40:03;;;;;;;2.17;1.45;;;12.70;87.30;;;;;;5054288;28;20087;-73
2021/06/23 02:42:29;;;;;;;3.23;1.67;;;12.80;87.40;;;;;;5072228;28;20025;-73
2021/06/23 02:44:55;;;;;;;2.13;1.75;;;12.70;87.30;;;;;;5072476;28;20358;-73
2021/06/23 02:47:21;;;;;;;1.77;1.60;;;12.70;87.40;;;;;;5072384;28;20021;-73
2021/06/23 02:49:47;;;;;;;1.38;1.27;;;12.70;87.40;;;;;;5071868;28;20021;-73
2021/06/23 02:52:13;;;;;;;1.98;1.58;;;12.70;87.50;;;;;;5073552;28;20510;-73
2021/06/23 02:54:40;;;;;;;2.47;1.50;;;12.70;87.50;;;;;;5075955;28;20032;-73
2021/06/23 02:57:06;;;;;;;1.63;1.48;;;12.70;87.60;;;;;;5075847;28;20124;-73
2021/06/23 02:59:33;;;;;;;1.58;1.33;;;12.70;87.50;;;;;;5057858;28;20064;-73
2021/06/23 03:02:00;;;;;;;2.33;1.95;;;12.70;87.50;;;;;;5057827;28;20025;-73
2021/06/23 03:04:25;;;;;;;1.50;1.40;;;12.70;87.50;;;;;;5057475;28;20021;-73
2021/06/23 03:06:51;;;;;;;1.40;1.30;;;12.70;87.60;;;;;;5057852;28;20522;-73
2021/06/23 03:09:17;;;;;;;1.90;1.48;;;12.70;87.70;;;;;;5057849;28;20009;-73
2021/06/23 03:11:42;;;;;;;2.63;1.38;;;12.70;87.60;;;;;;5075589;28;20385;-73
2021/06/23 03:14:09;;;;;;;2.03;1.52;;;12.70;87.60;;;;;;5075721;28;20036;-73
2021/06/23 03:16:35;;;;;;;1.88;1.75;;;12.70;87.60;;;;;;5075581;28;20357;-73
2021/06/23 03:19:00;;;;;;;2.38;1.85;;;12.70;87.70;;;;;;5075070;28;20469;-73
2021/06/23 03:21:26;;;;;;;1.73;1.58;;;12.60;87.60;;;;;;5075559;28;20050;-73
2021/06/23 03:23:53;;;;;;;1.45;1.35;;;12.60;87.70;;;;;;5075231;28;20103;-73
2021/06/23 03:26:19;;;;;;;2.22;1.48;;;12.70;87.70;;;;;;5075586;28;20484;-73
2021/06/23 03:28:46;;;;;;;1.52;1.42;;;12.70;87.70;;;;;;5057345;28;20380;-73
2021/06/23 03:31:12;;;;;;;1.83;1.70;;;12.70;87.60;;;;;;5057468;28;20111;-73
2021/06/23 03:33:38;;;;;;;1.83;1.60;;;12.70;87.70;;;;;;5074930;28;20028;-73
2021/06/23 03:36:05;;;;;;;1.73;1.58;;;12.60;87.60;;;;;;5074950;28;20553;-73
2021/06/23 03:38:31;;;;;;;2.05;1.63;;;12.60;87.80;;;;;;5075040;28;20052;-72
2021/06/23 03:40:56;;;;;;;2.75;1.60;;;12.60;87.80;;;;;;5075151;28;20412;-73
2021/06/23 03:43:22;;;;;;;1.65;1.55;;;12.70;87.70;;;;;;5075246;28;20039;-73
2021/06/23 03:45:48;;;;;;;1.83;1.50;;;12.80;87.60;;;;;;5074992;28;20070;-73
2021/06/23 03:48:14;;;;;;;1.50;1.40;;;12.70;87.50;;;;;;5074648;28;20012;-73
2021/06/23 03:50:41;;;;;;;2.90;1.45;;;12.80;87.60;;;;;;5074989;28;20039;-73
2021/06/23 03:53:07;;;;;;;2.20;1.80;;;12.80;87.50;;;;;;5074764;28;20024;-73
2021/06/23 03:55:33;;;;;;;1.92;1.48;;;12.80;87.50;;;;;;5056845;28;20017;-73
2021/06/23 03:57:58;;;;;;;1.63;1.30;;;12.90;87.50;;;;;;5074824;28;20489;-73
2021/06/23 04:00:27;;;;;;;2.33;1.55;;;12.90;87.40;;;;;;5074741;28;20016;-73
2021/06/23 04:02:53;;;;;;;1.40;1.30;;;12.90;87.40;;;;;;5055867;28;20025;-73
2021/06/23 04:05:19;;;;;;;1.33;1.23;;;12.90;87.50;;;;;;5056653;28;20028;-73
2021/06/23 04:07:45;;;;;;;1.42;1.30;;;12.80;87.50;;;;;;5074522;28;20025;-73
2021/06/23 04:10:11;;;;;;;1.65;1.45;;;12.80;87.60;;;;;;5074621;28;20081;-73
2021/06/23 04:12:37;;;;;;;1.80;1.70;;;12.80;87.60;;;;;;5056621;28;20043;-73
2021/06/23 04:15:05;;;;;;;1.38;1.25;;;12.80;87.60;;;;;;5074459;28;20548;-73
2021/06/23 04:17:30;;;;;;;1.48;1.38;;;12.80;87.60;;;;;;5073983;28;20020;-73
2021/06/23 04:19:56;;;;;;;1.45;1.35;;;12.80;87.60;;;;;;5074323;28;20130;-73
2021/06/23 04:22:23;;;;;;;1.90;1.70;;;12.80;87.80;;;;;;5074253;28;20066;-73
2021/06/23 04:24:49;;;;;;;1.50;1.40;;;12.80;87.70;;;;;;5074281;28;20027;-73
2021/06/23 04:27:15;;;;;;;1.65;1.45;;;12.90;87.80;;;;;;5074220;28;20469;-73
2021/06/23 04:29:40;;;;;;;1.52;1.40;;;12.90;87.70;;;;;;5056300;28;20024;-73
2021/06/23 04:32:06;;;;;;;1.42;1.30;;;12.90;87.60;;;;;;5055799;28;20025;-73
2021/06/23 04:34:32;;;;;;;2.00;1.45;;;13.00;87.60;;;;;;5055920;28;20473;-74
2021/06/23 04:36:57;;;;;;;1.50;1.40;;;13.00;87.50;;;;;;5074010;28;20032;-74
2021/06/23 04:39:23;;;;;;;1.55;1.35;;;13.00;87.60;;;;;;5073846;28;20041;-74
2021/06/23 04:41:48;;;;;;;1.50;1.40;;;13.00;87.60;;;;;;5074005;28;20401;-72
2021/06/23 04:44:14;;;;;;;2.03;1.42;;;13.00;87.60;;;;;;5055928;28;20051;-72
2021/06/23 04:46:39;;;;;;;1.30;1.20;;;13.00;87.60;;;;;;5073427;28;20031;-73
2021/06/23 04:49:05;;;;;;;1.55;1.27;;;13.00;87.70;;;;;;5073719;28;20091;-73
2021/06/23 04:51:30;;;;;;;1.13;1.13;;;13.10;87.60;;;;;;5073741;28;20039;-72
2021/06/23 04:53:56;;;;;;;2.45;1.48;;;13.10;87.70;;;;;;5074011;28;20092;-72
2021/06/23 04:56:21;;;;;;;1.30;1.20;;;13.10;87.60;;;;;;5055645;28;20091;-72
2021/06/23 04:58:47;;;;;;;1.48;1.17;;;13.20;87.50;;;;;;5073751;28;20047;-72
2021/06/23 05:01:13;;;;;;;2.33;1.42;;;13.20;87.50;;;;;;5073215;28;20393;-72
2021/06/23 05:03:39;;;;;;;1.52;1.40;;;13.20;87.50;;;;;;5073514;28;20025;-72
2021/06/23 05:06:04;;;;;;;1.77;1.48;;;13.10;87.60;;;;;;5073461;28;20031;-72
2021/06/23 05:08:30;;;;;;;1.75;1.63;;;13.20;87.70;;;;;;5055633;28;20016;-72
2021/06/23 05:10:56;;;;;;;1.23;1.13;;;13.20;87.60;;;;;;5073432;28;20025;-73
2021/06/23 05:13:22;;;;;;;1.35;1.25;;;13.30;87.60;;;;;;5054941;28;20031;-73
2021/06/23 05:15:48;;;;;;;1.67;1.40;;;13.20;87.40;;;;;;5072819;28;20032;-73
2021/06/23 05:18:14;;;;;;;2.88;1.77;;;13.30;87.50;;;;;;5073281;28;20028;-73
2021/06/23 05:20:40;;;;;;;1.75;1.48;;;13.30;87.40;;;;;;5073414;28;20020;-73
2021/06/23 05:23:07;;;;;;;1.40;1.30;;;13.30;87.30;;;;;;5073282;28;20078;-73
2021/06/23 05:25:33;;;;;;;1.58;1.20;;;13.30;87.40;;;;;;5073346;28;20016;-73
2021/06/23 05:27:59;;;;;;;1.45;1.33;;;13.30;87.40;;;;;;5072870;28;20028;-73
2021/06/23 05:30:25;;;;;;;1.52;1.30;;;13.40;87.50;;;;;;5055153;28;20020;-73
2021/06/23 05:32:51;;;;;;;1.70;1.42;;;13.50;87.40;;;;;;5073171;28;20103;-73
2021/06/23 05:35:16;;;;;;;1.42;1.20;;;13.50;87.30;;;;;;5073243;28;20024;-76
2021/06/23 05:37:42;;;;;;;2.45;1.60;;;13.50;87.20;;;;;;5055218;28;20082;-75
2021/06/23 05:40:08;;;;;;;1.40;1.30;;;13.60;87.20;;;;;;5072943;28;20045;-76
2021/06/23 05:42:34;;;;;;;1.67;1.50;;;13.60;87.20;;;;;;5072559;28;20094;-75
2021/06/23 05:44:59;;;;;;;2.55;1.67;;;13.80;87.00;;;;;;5073226;28;20416;-75
2021/06/23 05:47:25;;;;;;;2.42;1.95;;;13.80;87.00;;;;;;5073011;28;20537;-75
2021/06/23 05:49:50;;;;;;;2.22;1.42;;;13.80;86.90;;;;;;5055003;28;20024;-74
2021/06/23 05:52:16;;;;;;;2.22;1.75;;;13.80;87.00;;;;;;5072956;28;20107;-74
2021/06/23 05:54:42;;;;;;;2.30;1.85;;;13.90;87.10;;;;;;5073026;28;20046;-74
2021/06/23 05:57:07;;;;;;;2.53;1.45;;;14.00;86.80;;;;;;5072433;28;20035;-74
2021/06/23 05:59:33;;;;;;;2.33;1.60;;;14.10;86.90;;;;;;5072955;28;20024;-74
2021/06/23 06:01:58;;;;;;;3.08;1.88;;;14.20;86.60;;;;;;5054953;28;20029;-74
2021/06/23 06:04:24;;;;;;;5.63;1.90;;;14.30;86.50;;;;;;5055014;28;20028;-74
2021/06/23 06:06:49;;;;;;;2.30;1.85;;;14.20;86.50;;;;;;5054887;28;20020;-74
2021/06/23 06:09:15;;;;;;;1.88;1.75;;;14.30;86.60;;;;;;5072796;28;20028;-74
2021/06/23 06:11:41;;;;;;;1.35;1.25;;;14.40;86.60;;;;;;5054433;28;20027;-72
2021/06/23 06:14:06;;;;;;;1.70;1.38;;;14.60;86.50;;;;;;5072931;28;20029;-72
2021/06/23 06:16:32;;;;;;;2.15;1.50;;;14.70;86.20;;;;;;5054520;28;20040;-71
2021/06/23 06:18:58;;;;;;;1.35;1.15;;;14.80;86.00;;;;;;5072766;28;20045;-71
2021/06/23 06:21:24;;;;;;;1.35;1.25;;;15.00;85.90;;;;;;5072790;28;20035;-71
2021/06/23 06:23:49;;;;;;;0.85;0.85;;;15.10;85.70;;;;;;5072871;28;20492;-71
2021/06/23 06:26:15;;;;;;;1.23;1.10;;;15.10;85.70;;;;;;5073612;28;20082;-71
2021/06/23 06:28:41;;;;;;;1.33;1.02;;;15.20;85.70;;;;;;5076443;28;20024;-71
2021/06/23 06:31:06;;;;;;;1.40;1.00;;;15.30;85.80;;;;;;5076426;28;20020;-71
2021/06/23 06:33:32;;;;;;;2.15;1.20;;;15.30;85.70;;;;;;5076493;28;20032;-71
2021/06/23 06:35:58;;;;;;;1.27;1.17;;;15.30;85.60;;;;;;5076233;28;20021;-71
2021/06/23 06:38:23;;;;;;;1.15;1.08;;;15.40;85.70;;;;;;5076175;28;20024;-71
2021/06/23 06:40:49;;;;;;;0.98;0.90;;;15.40;85.60;;;;;;5057773;28;20400;-71
2021/06/23 06:43:15;;;;;;;0.95;0.88;;;15.40;85.60;;;;;;5076224;28;20397;-71
2021/06/23 06:45:40;;;;;;;0.93;0.93;;;15.50;85.80;;;;;;5075798;28;20020;-71
2021/06/23 06:48:07;;;;;;;1.48;1.00;;;15.40;85.60;;;;;;5076153;28;20096;-71
2021/06/23 06:50:32;;;;;;;0.93;0.93;;;15.40;85.60;;;;;;5076052;28;20020;-71
2021/06/23 06:52:58;;;;;;;1.50;1.17;;;15.30;85.80;;;;;;5076094;28;20142;-71
2021/06/23 06:55:23;;;;;;;1.45;1.02;;;15.40;85.80;;;;;;5075519;28;20029;-71
2021/06/23 06:57:51;;;;;;;1.25;1.05;;;15.40;85.70;;;;;;5075927;28;20028;-71
2021/06/23 07:00:18;;;;;;;0.90;0.90;;;15.40;85.70;;;;;;5075900;28;20028;-71
2021/06/23 07:02:44;;;;;;;1.15;1.10;;;15.50;85.60;;;;;;5075892;28;20079;-71
2021/06/23 07:05:10;;;;;;;1.00;0.90;;;15.50;85.50;;;;;;5057731;28;20031;-71
2021/06/23 07:07:35;;;;;;;2.17;0.80;;;15.60;85.40;;;;;;5057584;28;20111;-71
2021/06/23 07:10:02;;;;;;;0.95;0.88;;;15.70;85.40;;;;;;5075377;28;20016;-71
2021/06/23 07:12:27;;;;;;;1.00;0.82;;;15.70;85.20;;;;;;5057655;28;20029;-71
2021/06/23 07:14:53;;;;;;;1.17;0.70;;;15.80;85.10;;;;;;5075520;28;20070;-71
2021/06/23 07:17:18;;;;;;;0.73;0.73;;;15.80;85.00;;;;;;5075588;28;20040;-71
2021/06/23 07:19:43;;;;;;;1.00;1.00;;;15.80;85.00;;;;;;5075462;28;20074;-71
2021/06/23 07:22:09;;;;;;;0.82;0.82;;;15.80;85.00;;;;;;5057704;28;20381;-71
2021/06/23 07:24:35;;;;;;;0.77;0.77;;;15.90;85.10;;;;;;5075035;28;20024;-71
2021/06/23 07:27:00;;;;;;;0.95;0.90;;;16.00;84.70;;;;;;5075459;28;20032;-71
2021/06/23 07:29:27;;;;;;;1.50;1.20;;;16.00;84.70;;;;;;5075254;28;20032;-71
2021/06/23 07:31:59;;;;;;;1.67;1.05;;;16.00;84.90;;;;;;5075295;28;20035;-71
2021/06/23 07:36:58;;;;;;;1.48;1.13;;;16.10;84.70;;;;;;5075151;28;20474;-71
2021/06/23 07:39:24;;;;;;;0.95;0.88;;;16.10;84.70;;;;;;5073893;28;20041;-71
2021/06/23 07:41:51;;;;;;;0.82;0.80;;;16.20;84.80;;;;;;5057093;28;20075;-71
2021/06/23 07:44:21;;;;;;;0.95;0.80;;;16.30;84.70;;;;;;5075094;28;20021;-71
2021/06/23 07:46:55;;;;;;;1.15;0.93;;;16.40;84.50;;;;;;5075170;28;20025;-71
2021/06/23 07:49:23;;;;;;;1.08;1.00;;;16.50;84.40;;;;;;5074947;28;20491;-71
2021/06/23 07:54:55;;;;;;;0.80;0.80;;;16.40;84.10;;;;;;5074482;28;20024;-72
2021/06/23 08:10:43;;;;;;;0.63;0.63;;;16.70;83.90;;;;;;5074476;28;20431;-73
2021/06/23 08:13:10;;;;;;;1.25;0.93;;;16.80;83.80;;;;;;5056553;28;20020;-74
2021/06/23 08:15:39;;;;;;;1.20;0.73;;;17.00;83.50;;;;;;5056598;28;20081;-73
2021/06/23 08:18:05;;;;;;;1.45;0.68;;;17.20;83.10;;;;;;5074256;28;20119;-73
2021/06/23 08:20:31;;;;;;;0.90;0.90;;;17.20;82.90;;;;;;5074263;28;20032;-72
2021/06/23 08:22:57;;;;;;;2.45;1.25;;;17.30;82.80;;;;;;5073853;28;20029;-73
2021/06/23 08:25:23;;;;;;;1.20;1.08;;;17.30;82.90;;;;;;5074323;28;20093;-72
2021/06/23 08:27:49;;;;;;;1.27;0.95;;;17.30;82.80;;;;;;5056217;28;20025;-73
2021/06/23 08:30:16;;;;;;;1.30;1.13;;;17.30;83.00;;;;;;5056172;28;20111;-73
2021/06/23 08:32:41;;;;;;;2.00;1.50;;;17.30;83.00;;;;;;5074107;28;20112;-72
2021/06/23 08:35:09;;;;;;;0.82;0.82;;;17.40;82.80;;;;;;5073852;28;20393;-73
2021/06/23 08:37:35;;;;;;;1.20;0.70;;;17.30;83.10;;;;;;5073530;28;20036;-73
2021/06/23 08:40:00;;;;;;;0.98;0.70;;;17.30;83.20;;;;;;5055879;28;20493;-73
2021/06/23 08:42:26;;;;;;;1.45;1.27;;;17.40;83.20;;;;;;5056017;28;20035;-73
2021/06/23 08:44:52;;;;;;;0.70;0.70;;;17.40;82.90;;;;;;5073714;28;20020;-73
2021/06/23 08:47:18;;;;;;;0.70;0.70;;;17.50;82.60;;;;;;5073882;28;20027;-73
2021/06/23 08:49:44;;;;;;;0.90;0.80;;;17.40;82.50;;;;;;5072955;28;20408;-73
2021/06/23 08:52:10;;;;;;;0.60;0.60;;;17.30;82.70;;;;;;5073291;28;20020;-74
2021/06/23 08:54:36;;;;;;;0.80;0.80;;;17.40;82.70;;;;;;5073780;28;20032;-74
2021/06/23 08:57:04;;;;;;;1.45;0.80;;;17.50;82.60;;;;;;5073456;28;20033;-74
2021/06/23 08:59:30;;;;;;;0.93;0.93;;;17.60;82.10;;;;;;5073490;28;20465;-74
2021/06/23 09:01:56;;;;;;;0.80;0.80;;;17.60;82.00;;;;;;5073840;28;20027;-74
2021/06/23 09:04:25;;;;;;;0.70;0.70;;;17.60;82.30;;;;;;5073651;28;20025;-73
2021/06/23 09:06:53;;;;;;;0.70;0.70;;;17.80;82.10;;;;;;5073080;28;20424;-76
2021/06/23 09:09:25;;;;;;;0.85;0.85;;;18.00;81.70;;;;;;5073343;28;20028;-73
2021/06/23 09:11:54;;;;;;;1.95;1.00;;;18.30;81.30;;;;;;5073472;28;20043;-74
2021/06/23 09:14:20;;;;;;;1.08;0.80;;;18.40;80.90;;;;;;5073603;28;20025;-73
2021/06/23 09:17:01;;;;;;;0.80;0.80;;;18.40;81.00;;;;;;5073166;28;20032;-74
2021/06/23 09:19:28;;;;;;;0.40;0.40;;;18.40;80.90;;;;;;5073264;28;20047;-73
2021/06/23 09:21:54;;;;;;;0.73;0.65;;;18.40;81.10;;;;;;5072873;28;20017;-73
2021/06/23 09:24:19;;;;;;;0.85;0.80;;;18.50;81.00;;;;;;5073180;28;20095;-73
2021/06/23 09:26:45;;;;;;;0.82;0.80;;;18.50;80.80;;;;;;5073195;28;20077;-73
2021/06/23 09:29:18;;;;;;;2.38;1.45;;;18.50;80.90;;;;;;5055310;28;20023;-73
2021/06/23 09:31:53;;;;;;;1.20;1.10;;;18.40;80.90;;;;;;5073212;28;20028;-73
2021/06/23 09:34:26;;;;;;;1.95;1.00;;;18.40;81.10;;;;;;5072483;28;20024;-73
2021/06/23 09:36:53;;;;;;;0.73;0.73;;;18.60;81.10;;;;;;5072909;28;20037;-73
2021/06/23 09:39:21;;;;;;;1.15;0.90;;;18.80;80.80;;;;;;5054918;28;20041;-73
2021/06/23 09:41:48;;;;;;;1.02;0.95;;;18.90;80.30;;;;;;5073077;28;20029;-74
2021/06/23 09:44:13;;;;;;;1.20;1.10;;;19.00;79.80;;;;;;5073054;28;20078;-73
2021/06/23 09:46:45;;;;;;;0.88;0.77;;;18.80;80.10;;;;;;5073023;28;20032;-73
2021/06/23 09:49:12;;;;;;;1.00;0.90;;;18.60;80.30;;;;;;5072678;28;20021;-74
2021/06/23 09:51:47;;;;;;;0.80;0.80;;;18.60;80.80;;;;;;5073125;28;20489;-74
2021/06/23 09:54:15;;;;;;;2.25;1.15;;;18.70;80.60;;;;;;5072986;28;20091;-73
2021/06/23 09:56:47;;;;;;;1.33;0.80;;;18.70;80.40;;;;;;5054937;28;20470;-73
2021/06/23 09:59:38;;;;;;;0.65;0.65;;;18.80;80.20;;;;;;5073076;28;20095;-73
2021/06/23 10:02:28;;;;;;;3.20;1.05;;;18.80;80.10;;;;;;5075725;28;20408;-74
2021/06/23 10:04:56;;;;;;;0.75;0.75;;;18.90;80.30;;;;;;5067661;28;20037;-74
2021/06/23 10:07:44;;;;;;;1.35;1.08;;;19.10;80.00;;;;;;5076681;28;20024;-74
2021/06/23 10:10:12;;;;;;;0.80;0.80;;;19.40;79.40;;;;;;5076880;28;20100;-74
2021/06/23 10:12:38;;;;;;;0.68;0.68;;;19.50;78.90;;;;;;5058823;28;20074;-74
2021/06/23 10:15:05;;;;;;;1.40;0.90;;;19.40;79.10;;;;;;5058763;28;20103;-75
2021/06/23 10:17:32;;;;;;;0.80;0.80;;;19.60;79.20;;;;;;5058508;28;20040;-73
2021/06/23 10:19:59;;;;;;;0.80;0.80;;;19.70;78.80;;;;;;5076084;28;20563;-74
2021/06/23 10:22:25;;;;;;;1.25;0.88;;;19.90;78.60;;;;;;5076542;28;20020;-78
2021/06/23 10:24:53;;;;;;;0.80;0.80;;;20.00;78.40;;;;;;5076523;28;20028;-74
2021/06/23 10:27:21;;;;;;;1.10;0.90;;;20.00;78.30;;;;;;5076497;28;20031;-75
2021/06/23 10:29:52;;;;;;;0.63;0.63;;;19.80;78.40;;;;;;5076451;28;20020;-75
2021/06/23 10:32:18;;;;;;;1.13;0.98;;;19.70;78.50;;;;;;5076318;28;20020;-75
2021/06/23 10:34:44;;;;;;;0.90;0.90;;;19.70;78.70;;;;;;5076239;28;20100;-74
2021/06/23 10:37:12;;;;;;;1.27;1.17;;;19.60;78.80;;;;;;5076235;28;20108;-75
2021/06/23 10:39:38;;;;;;;0.80;0.80;;;19.50;78.90;;;;;;5076027;28;20493;-75
2021/06/23 10:42:06;;;;;;;0.70;0.70;;;19.60;78.90;;;;;;5076173;28;20025;-74
2021/06/23 10:44:36;;;;;;;0.50;0.45;;;19.80;78.50;;;;;;5058244;28;20017;-75
2021/06/23 10:47:07;;;;;;;0.68;0.68;;;20.00;78.00;;;;;;5075673;28;20137;-75
2021/06/23 10:49:41;;;;;;;1.08;0.90;;;20.10;77.90;;;;;;5075963;28;20028;-75
2021/06/23 10:52:22;;;;;;;0.60;0.60;;;20.20;77.50;;;;;;5076006;28;20477;-74
2021/06/23 10:54:47;;;;;;;0.70;0.70;;;20.30;77.30;;;;;;5076057;28;20031;-74
2021/06/23 10:57:23;;;;;;;1.02;0.90;;;20.10;77.60;;;;;;5075817;28;20036;-74
2021/06/23 10:59:49;;;;;;;1.08;1.02;;;20.00;77.90;;;;;;5057885;28;20479;-73
2021/06/23 11:02:15;;;;;;;0.60;0.60;;;19.90;78.00;;;;;;5075513;28;20110;-74
2021/06/23 11:05:02;;;;;;;0.85;0.60;;;19.90;78.20;;;;;;5075695;28;20483;-74
2021/06/23 11:07:33;;;;;;;0.68;0.68;;;20.10;77.90;;;;;;5075793;28;20059;-75
2021/06/23 11:10:11;;;;;;;0.70;0.70;;;20.30;77.10;;;;;;5075879;28;20502;-74
2021/06/23 11:12:43;;;;;;;0.82;0.60;;;20.40;77.00;;;;;;5056513;28;20059;-74
2021/06/23 11:15:25;;;;;;;0.68;0.68;;;20.50;76.90;;;;;;5057758;28;20031;-74
2021/06/23 11:17:53;;;;;;;0.75;0.73;;;20.80;76.60;;;;;;5075255;28;20036;-74
2021/06/23 11:20:18;;;;;;;0.52;0.52;;;21.10;76.10;;;;;;5057467;28;20013;-74
2021/06/23 11:22:54;;;;;;;0.70;0.70;;;21.20;76.00;;;;;;5075523;28;20047;-74
2021/06/23 11:25:27;;;;;;;0.80;0.80;;;21.20;76.00;;;;;;5075618;28;20350;-74
2021/06/23 11:28:08;;;;;;;1.75;1.42;;;21.30;75.80;;;;;;5075297;28;20122;-75
2021/06/23 11:30:55;;;;;;;1.30;1.17;;;21.10;75.80;;;;;;5074888;28;20048;-74
2021/06/23 11:33:26;;;;;;;1.10;1.08;;;20.70;76.80;;;;;;5075138;28;20110;-74
2021/06/23 11:35:53;;;;;;;1.20;1.10;;;20.40;76.60;;;;;;5075166;28;20082;-74
2021/06/23 11:38:18;;;;;;;1.20;1.00;;;20.30;77.00;;;;;;5057222;28;20115;-74
2021/06/23 11:40:44;;;;;;;0.90;0.90;;;20.30;76.80;;;;;;5074887;28;20504;-74
2021/06/23 11:43:10;;;;;;;1.02;1.02;;;20.40;76.50;;;;;;5074911;28;20099;-74
2021/06/23 11:45:36;;;;;;;1.05;1.05;;;20.20;76.50;;;;;;5056460;28;20462;-74
2021/06/23 11:48:01;;;;;;;1.00;1.00;;;20.40;76.60;;;;;;5074992;28;20103;-73
2021/06/23 11:50:27;;;;;;;1.40;1.30;;;20.60;76.00;;;;;;5074882;28;20491;-74
2021/06/23 11:52:52;;;;;;;1.25;1.15;;;20.60;75.70;;;;;;5056854;28;20036;-74
2021/06/23 11:55:24;;;;;;;0.90;0.90;;;20.50;76.00;;;;;;5074898;28;20020;-74
2021/06/23 11:57:54;;;;;;;0.93;0.93;;;20.60;75.90;;;;;;5074554;28;20032;-74
2021/06/23 12:00:21;;;;;;;1.00;0.80;;;20.70;75.70;;;;;;5074306;28;20020;-74
2021/06/23 12:02:47;;;;;;;0.80;0.80;;;21.00;75.10;;;;;;5074681;28;20543;-74
2021/06/23 12:05:12;;;;;;;0.77;0.77;;;21.20;74.60;;;;;;5074803;28;20025;-74
2021/06/23 12:07:38;;;;;;;0.63;0.63;;;21.40;75.10;;;;;;5074532;28;20381;-74
2021/06/23 12:10:05;;;;;;;1.38;1.23;;;21.80;74.00;;;;;;5074417;28;20028;-74
2021/06/23 12:12:31;;;;;;;2.00;1.40;;;22.10;72.90;;;;;;5074592;28;20107;-74
2021/06/23 12:14:56;;;;;;;1.30;1.20;;;21.70;73.40;;;;;;5074025;28;20099;-74
2021/06/23 12:17:22;;;;;;;1.00;1.00;;;21.30;74.30;;;;;;5074365;28;20056;-74
2021/06/23 12:19:47;;;;;;;1.27;1.15;;;21.10;74.90;;;;;;5056335;28;20487;-74
2021/06/23 12:22:13;;;;;;;0.80;0.77;;;21.00;75.30;;;;;;5074174;28;20025;-74
2021/06/23 12:24:40;;;;;;;1.00;1.00;;;21.10;75.10;;;;;;5074050;28;20031;-74
2021/06/23 12:27:06;;;;;;;1.08;1.08;;;21.20;74.70;;;;;;5074049;28;20025;-74
2021/06/23 12:29:32;;;;;;;1.30;1.20;;;20.90;74.90;;;;;;5073608;28;20113;-74
2021/06/23 12:32:02;;;;;;;1.20;1.10;;;20.70;75.20;;;;;;5036226;28;20508;-74
2021/06/23 12:34:28;;;;;;;1.00;1.00;;;20.70;75.50;;;;;;5054153;28;20535;-74
2021/06/23 12:36:54;;;;;;;1.05;0.98;;;20.70;75.30;;;;;;5053880;28;20025;-74
2021/06/23 12:39:20;;;;;;;0.80;0.80;;;20.80;74.90;;;;;;5036057;28;20044;-72
2021/06/23 12:41:45;;;;;;;0.80;0.80;;;20.90;74.70;;;;;;5053901;28;20470;-75
2021/06/23 12:44:11;;;;;;;0.77;0.68;;;21.00;74.80;;;;;;5053510;28;20489;-74
2021/06/23 12:46:37;;;;;;;0.82;0.82;;;21.20;74.50;;;;;;5053834;28;20473;-76
2021/06/23 12:49:02;;;;;;;0.65;0.63;;;21.30;74.10;;;;;;5053739;28;20496;-74
2021/06/23 12:51:28;;;;;;;0.93;0.90;;;21.50;73.80;;;;;;5036000;28;20028;-75
2021/06/23 12:53:53;;;;;;;1.27;0.70;;;21.50;73.70;;;;;;5035869;28;20013;-75
2021/06/23 12:56:19;;;;;;;1.05;1.00;;;21.40;73.70;;;;;;5035657;28;20401;-75
2021/06/23 12:58:44;;;;;;;1.60;1.35;;;21.20;74.20;;;;;;5035359;28;20477;-75
2021/06/23 13:01:10;;;;;;;1.15;1.05;;;21.10;74.30;;;;;;5053555;28;20027;-74
2021/06/23 13:03:35;;;;;;;1.08;1.00;;;21.00;74.40;;;;;;5035737;28;20524;-75
2021/06/23 13:06:04;;;;;;;1.25;1.10;;;21.10;74.30;;;;;;5053587;28;20032;-75
2021/06/23 13:08:30;;;;;;;1.17;0.90;;;21.10;74.30;;;;;;5053778;28;20025;-75